createdAt,value
2023-03-22T00:02:30.545Z,82.14
2023-03-22T00:05:02.720Z,82.44
2023-03-22T00:07:34.603Z,82.23
2023-03-22T00:10:08.219Z,82.12
2023-03-22T00:12:40.120Z,82.18
2023-03-22T00:15:14.484Z,82.13
2023-03-22T00:17:46.533Z,82.26
2023-03-22T00:20:23.608Z,82.17
2023-03-22T00:22:55.791Z,82.28
2023-03-22T00:25:27.842Z,82.26
2023-03-22T00:27:59.738Z,82.42
2023-03-22T00:30:54.183Z,82.42
2023-03-22T00:33:26.093Z,82.37
2023-03-22T00:36:01.204Z,82.36
2023-03-22T00:38:42.564Z,82.47
2023-03-22T00:41:16.931Z,82.55
2023-03-22T00:43:50.737Z,82.53
2023-03-22T00:46:23.136Z,82.44
2023-03-22T00:48:54.716Z,82.39
2023-03-22T00:51:26.696Z,82.36
2023-03-22T00:53:58.998Z,82.45
2023-03-22T00:56:33.915Z,82.18
2023-03-22T00:59:12.135Z,82.41
2023-03-22T01:01:45.602Z,82.35
2023-03-22T01:04:17.997Z,82.36
2023-03-22T01:06:50.771Z,82.25
2023-03-22T01:09:24.107Z,82.18
2023-03-22T01:11:57.796Z,82.11
2023-03-22T01:14:31.917Z,82.30
2023-03-22T01:17:04.527Z,82.17
2023-03-22T01:19:40.649Z,82.22
2023-03-22T01:22:15.804Z,82.07
2023-03-22T01:24:49.964Z,82.34
2023-03-22T01:27:23.519Z,82.48
2023-03-22T01:29:56.013Z,82.85
2023-03-22T01:32:34.206Z,83.20
2023-03-22T01:35:11.165Z,83.91
2023-03-22T01:37:47.437Z,84.51
2023-03-22T01:40:24.932Z,84.76
2023-03-22T01:42:58.723Z,84.65
2023-03-22T01:45:43.108Z,84.55
2023-03-22T01:48:31.709Z,84.59
2023-03-22T01:51:15.318Z,84.55
2023-03-22T01:54:07.145Z,84.34
2023-03-22T01:56:43.157Z,84.33
2023-03-22T01:59:20.918Z,84.11
2023-03-22T02:02:14.875Z,84.44
2023-03-22T02:04:50.900Z,85.08
2023-03-22T02:07:27.127Z,85.42
2023-03-22T02:10:00.801Z,85.81
2023-03-22T02:12:51.092Z,86.30
2023-03-22T02:15:39.613Z,86.97
2023-03-22T02:18:52.550Z,88.12
2023-03-22T02:21:41.592Z,89.17
2023-03-22T02:24:47.513Z,89.48
2023-03-22T02:27:53.780Z,89.63
2023-03-22T02:30:52.530Z,90.18
2023-03-22T02:33:41.558Z,90.93
2023-03-22T02:36:30.870Z,91.23
2023-03-22T02:39:24.198Z,91.79
2023-03-22T02:42:12.097Z,91.75
2023-03-22T02:44:52.615Z,92.18
2023-03-22T02:47:31.453Z,92.41
2023-03-22T02:50:10.146Z,92.94
2023-03-22T02:52:46.658Z,93.43
2023-03-22T02:55:22.527Z,93.66
2023-03-22T02:57:59.129Z,94.06
2023-03-22T03:00:32.271Z,94.29
2023-03-22T03:03:11.578Z,94.78
2023-03-22T03:05:48.146Z,95.24
2023-03-22T03:08:21.800Z,95.52
2023-03-22T03:10:55.152Z,96.01
2023-03-22T03:13:27.189Z,96.07
2023-03-22T03:16:01.665Z,96.45
2023-03-22T03:18:45.793Z,96.96
2023-03-22T03:21:30.133Z,97.25
2023-03-22T03:24:13.786Z,97.54
2023-03-22T03:26:57.626Z,98.26
2023-03-22T03:29:39.848Z,98.46
2023-03-22T03:32:18.631Z,98.66
2023-03-22T03:34:57.424Z,98.90
2023-03-22T03:37:33.916Z,99.52
2023-03-22T03:40:11.425Z,99.65
2023-03-22T03:42:49.541Z,99.93
2023-03-22T03:45:23.284Z,99.85
2023-03-22T03:47:58.972Z,99.90
2023-03-22T03:50:31.275Z,100.00
2023-03-22T03:53:03.590Z,100.00
2023-03-22T03:55:37.622Z,100.00
2023-03-22T03:58:10.016Z,100.00
2023-03-22T04:00:42.173Z,100.00
2023-03-22T04:03:27.607Z,100.00
2023-03-22T04:06:19.804Z,100.00
2023-03-22T04:08:56.662Z,100.00
2023-03-22T04:11:30.854Z,100.00
2023-03-22T04:14:05.301Z,100.00
2023-03-22T04:16:37.276Z,100.00
2023-03-22T04:19:09.632Z,100.00
2023-03-22T04:21:41.967Z,100.00
2023-03-22T04:24:14.368Z,100.00
2023-03-22T04:26:47.579Z,100.00
2023-03-22T04:29:48.571Z,100.00
2023-03-22T04:32:56.333Z,100.00
2023-03-22T04:35:36.356Z,100.00
2023-03-22T04:38:09.658Z,100.00
2023-03-22T04:40:46.932Z,100.00
2023-03-22T04:43:25.828Z,100.00
2023-03-22T04:46:02.916Z,100.00
2023-03-22T04:48:42.742Z,100.00
2023-03-22T04:51:15.514Z,100.00
2023-03-22T04:53:55.812Z,100.00
2023-03-22T04:56:28.673Z,100.00
2023-03-22T04:59:01.533Z,100.00
2023-03-22T05:01:32.338Z,100.00
2023-03-22T05:04:13.499Z,100.00
2023-03-22T05:06:46.467Z,100.00
2023-03-22T05:09:25.234Z,100.00
2023-03-22T05:11:58.325Z,100.00
2023-03-22T05:14:56.645Z,100.00
2023-03-22T05:17:31.953Z,100.00
2023-03-22T05:20:09.278Z,100.00
2023-03-22T05:22:42.751Z,100.00
2023-03-22T05:25:16.121Z,100.00
2023-03-22T05:27:50.258Z,100.00
2023-03-22T05:30:41.690Z,100.00
2023-03-22T05:33:24.110Z,100.00
2023-03-22T05:35:58.554Z,100.00
2023-03-22T05:38:32.335Z,100.00
2023-03-22T05:41:05.574Z,100.00
2023-03-22T05:43:38.917Z,100.00
2023-03-22T05:46:13.097Z,100.00
2023-03-22T05:48:58.383Z,100.00
2023-03-22T05:51:30.696Z,100.00
2023-03-22T05:54:03.318Z,100.00
2023-03-22T05:56:40.669Z,100.00
2023-03-22T05:59:12.569Z,100.00
2023-03-22T06:01:43.960Z,100.00
2023-03-22T06:04:25.590Z,100.00
2023-03-22T06:07:10.925Z,100.00
2023-03-22T06:09:52.670Z,100.00
2023-03-22T06:12:30.173Z,100.00
2023-03-22T06:15:13.036Z,100.00
2023-03-22T06:18:04.768Z,100.00
2023-03-22T06:20:41.860Z,100.00
2023-03-22T06:23:24.917Z,100.00
2023-03-22T06:25:56.860Z,100.00
2023-03-22T06:28:29.990Z,100.00
2023-03-22T06:31:09.306Z,100.00
2023-03-22T06:34:08.052Z,100.00
2023-03-22T06:36:45.668Z,100.00
2023-03-22T06:39:36.727Z,100.00
2023-03-22T06:42:08.744Z,100.00
2023-03-22T06:44:43.864Z,100.00
2023-03-22T06:47:21.951Z,100.00
2023-03-22T06:50:02.810Z,100.00
2023-03-22T06:52:54.354Z,100.00
2023-03-22T06:55:26.569Z,100.00
2023-03-22T06:58:04.839Z,100.00
2023-03-22T07:00:35.496Z,100.00
2023-03-22T07:03:07.787Z,100.00
2023-03-22T07:06:01.613Z,100.00
2023-03-22T07:08:37.052Z,100.00
2023-03-22T07:11:10.273Z,100.00
2023-03-22T07:13:42.612Z,100.00
2023-03-22T07:16:19.854Z,100.00
2023-03-22T07:18:57.109Z,100.00
2023-03-22T07:21:31.222Z,100.00
2023-03-22T07:24:06.695Z,100.00
2023-03-22T07:26:40.701Z,100.00
2023-03-22T07:29:13.181Z,100.00
2023-03-22T07:31:45.977Z,100.00
2023-03-22T07:34:34.342Z,100.00
2023-03-22T07:37:11.252Z,100.00
2023-03-22T07:39:43.197Z,100.00
2023-03-22T07:42:15.685Z,100.00
2023-03-22T07:44:49.836Z,100.00
2023-03-22T07:47:39.515Z,100.00
2023-03-22T07:50:33.625Z,100.00
2023-03-22T07:53:07.871Z,100.00
2023-03-22T07:55:42.188Z,100.00
2023-03-22T07:58:15.087Z,100.00
2023-03-22T08:00:49.694Z,100.00
2023-03-22T08:03:42.014Z,99.98
2023-03-22T08:06:25.394Z,98.70
2023-03-22T08:08:57.426Z,98.20
2023-03-22T08:11:31.310Z,98.04
2023-03-22T08:14:03.872Z,97.65
2023-03-22T08:16:38.412Z,96.86
2023-03-22T08:19:11.666Z,97.29
2023-03-22T08:21:43.614Z,97.15
2023-03-22T08:24:24.952Z,95.82
2023-03-22T08:27:05.923Z,96.09
2023-03-22T08:29:47.500Z,96.24
2023-03-22T08:32:20.431Z,95.64
2023-03-22T08:34:51.148Z,94.74
2023-03-22T08:37:23.051Z,94.40
2023-03-22T08:39:54.327Z,94.39
2023-03-22T08:42:33.251Z,93.82
2023-03-22T08:45:07.389Z,94.71
2023-03-22T08:47:41.372Z,93.79
2023-03-22T08:50:14.283Z,93.10
2023-03-22T08:52:53.903Z,92.78
2023-03-22T08:55:36.047Z,91.89
2023-03-22T08:58:14.683Z,91.64
2023-03-22T09:01:21.248Z,91.53
2023-03-22T09:03:58.515Z,91.43
2023-03-22T09:06:31.365Z,91.25
2023-03-22T09:09:02.115Z,90.47
2023-03-22T09:11:35.522Z,89.90
2023-03-22T09:14:07.457Z,89.81
2023-03-22T09:16:39.713Z,89.85
2023-03-22T09:19:12.261Z,89.53
2023-03-22T09:21:42.855Z,87.66
2023-03-22T09:24:20.877Z,88.00
2023-03-22T09:27:00.951Z,87.82
2023-03-22T09:29:33.254Z,87.54
2023-03-22T09:32:08.346Z,87.56
2023-03-22T09:34:41.935Z,87.29
2023-03-22T09:37:14.900Z,87.44
2023-03-22T09:39:54.220Z,87.00
2023-03-22T09:42:38.935Z,86.50
2023-03-22T09:45:17.695Z,86.78
2023-03-22T09:47:53.871Z,86.87
2023-03-22T09:50:27.991Z,85.74
2023-03-22T09:53:00.853Z,85.21
2023-03-22T09:55:37.455Z,84.42
2023-03-22T09:58:20.911Z,84.98
2023-03-22T10:00:57.904Z,84.55
2023-03-22T10:03:50.657Z,83.59
2023-03-22T10:06:25.018Z,82.44
2023-03-22T10:09:06.845Z,82.52
2023-03-22T10:11:46.246Z,82.58
2023-03-22T10:14:31.470Z,82.01
2023-03-22T10:17:07.588Z,81.47
2023-03-22T10:19:47.380Z,81.49
2023-03-22T10:22:25.200Z,80.49
2023-03-22T10:24:58.186Z,80.25
2023-03-22T10:27:32.601Z,80.84
2023-03-22T10:30:09.314Z,80.16
2023-03-22T10:32:57.232Z,79.55
2023-03-22T10:35:33.536Z,79.39
2023-03-22T10:38:10.597Z,79.63
2023-03-22T10:40:42.875Z,80.13
2023-03-22T10:43:22.284Z,79.60
2023-03-22T10:45:56.688Z,79.06
2023-03-22T10:48:33.430Z,79.21
2023-03-22T10:51:06.298Z,79.62
2023-03-22T10:53:38.790Z,79.74
2023-03-22T10:56:16.903Z,79.20
2023-03-22T10:58:49.977Z,79.44
2023-03-22T11:01:31.303Z,78.94
2023-03-22T11:04:10.558Z,78.24
2023-03-22T11:06:54.690Z,77.57
2023-03-22T11:09:27.868Z,77.56
2023-03-22T11:12:01.705Z,77.84
2023-03-22T11:14:36.942Z,78.13
2023-03-22T11:17:17.114Z,77.73
2023-03-22T11:19:57.254Z,77.29
2023-03-22T11:22:36.757Z,77.02
2023-03-22T11:25:18.045Z,76.15
2023-03-22T11:27:56.382Z,75.94
2023-03-22T11:30:29.949Z,75.84
2023-03-22T11:33:17.001Z,74.82
2023-03-22T11:35:56.455Z,74.39
2023-03-22T11:38:36.532Z,74.43
2023-03-22T11:41:13.144Z,73.99
2023-03-22T11:43:52.756Z,74.12
2023-03-22T11:46:26.787Z,73.93
2023-03-22T11:49:01.195Z,72.79
2023-03-22T11:51:36.101Z,73.02
2023-03-22T11:54:15.917Z,72.58
2023-03-22T11:56:50.615Z,72.04
2023-03-22T11:59:27.858Z,71.78
2023-03-22T12:02:06.917Z,71.72
2023-03-22T12:04:42.853Z,72.06
2023-03-22T12:07:19.509Z,71.63
2023-03-22T12:09:58.977Z,71.10
2023-03-22T12:12:36.121Z,70.39
2023-03-22T12:15:14.140Z,70.89
2023-03-22T12:17:50.326Z,71.33
2023-03-22T12:20:32.845Z,70.76
2023-03-22T12:23:10.578Z,70.25
2023-03-22T12:25:46.308Z,69.85
2023-03-22T12:28:22.228Z,69.81
2023-03-22T12:30:58.569Z,70.97
2023-03-22T12:33:33.963Z,70.60
2023-03-22T12:36:09.275Z,70.27
2023-03-22T12:38:48.278Z,70.33
2023-03-22T12:41:26.586Z,70.51
2023-03-22T12:44:01.511Z,70.08
2023-03-22T12:46:37.492Z,70.52
2023-03-22T12:49:19.474Z,70.69
2023-03-22T12:51:53.353Z,70.78
2023-03-22T12:54:28.225Z,71.74
2023-03-22T12:57:01.207Z,72.03
2023-03-22T12:59:34.524Z,71.91
2023-03-22T13:02:16.992Z,70.64
2023-03-22T13:04:58.234Z,71.01
2023-03-22T13:07:56.451Z,71.27
2023-03-22T13:10:51.290Z,71.15
2023-03-22T13:13:48.021Z,71.08
2023-03-22T13:16:54.120Z,70.79
2023-03-22T13:19:54.431Z,70.35
2023-03-22T13:22:30.560Z,70.03
2023-03-22T13:25:29.147Z,69.70
2023-03-22T13:28:03.498Z,69.08
2023-03-22T13:30:51.124Z,68.33
2023-03-22T13:33:30.002Z,67.96
2023-03-22T13:36:07.491Z,68.31
2023-03-22T13:38:43.117Z,68.19
2023-03-22T13:41:23.079Z,67.65
2023-03-22T13:43:57.678Z,67.43
2023-03-22T13:46:48.002Z,67.19
2023-03-22T13:49:32.352Z,66.05
2023-03-22T13:52:08.343Z,65.57
2023-03-22T13:54:45.185Z,65.95
2023-03-22T13:57:48.004Z,65.30
2023-03-22T14:00:48.071Z,65.04
2023-03-22T14:03:29.634Z,65.26
2023-03-22T14:06:19.842Z,64.89
2023-03-22T14:08:55.517Z,64.38
2023-03-22T14:11:32.669Z,64.48
2023-03-22T14:14:09.531Z,64.02
2023-03-22T14:16:47.654Z,63.14
2023-03-22T14:19:24.990Z,62.83
